Time;durP1;ratioP1;P1;durP2;ratioP2;P2;SDS_P1;SDS_P2;PMS_P1;PMS_P2;Temp;Humidity;BMP_temperature;BMP_pressure;BME280_temperature;BME280_humidity;BME280_pressure;Samples;Min_cycle;Max_cycle;Signal;HPM_P1;HPM_P2
2023/03/22 00:00:46;;;;;;;1.38;0.52;;;;;;;3.67;71.15;100759.06;5054069;28;20128;-68
2023/03/22 00:03:13;;;;;;;1.48;0.70;;;;;;;3.67;70.83;100754.78;5057242;28;20060;-68
2023/03/22 00:05:40;;;;;;;1.02;0.60;;;;;;;3.68;70.92;100750.47;5058451;28;20423;-68
2023/03/22 00:08:07;;;;;;;1.92;0.80;;;;;;;3.68;71.00;100746.16;5058632;28;20440;-68
2023/03/22 00:10:37;;;;;;;1.13;0.60;;;;;;;3.69;71.21;100734.13;5056580;28;20166;-68
2023/03/22 00:13:05;;;;;;;2.40;1.05;;;;;;;3.69;71.52;100732.41;5054983;28;20057;-68
2023/03/22 00:15:32;;;;;;;1.98;0.60;;;;;;;3.71;71.11;100724.66;5054079;28;20051;-68
2023/03/22 00:18:01;;;;;;;0.82;0.50;;;;;;;3.69;71.28;100716.88;5055046;28;20364;-68
2023/03/22 00:20:29;;;;;;;1.70;0.70;;;;;;;3.68;71.38;100709.16;5059263;28;20053;-67
2023/03/22 00:22:56;;;;;;;1.25;0.60;;;;;;;3.70;71.25;100718.66;5056129;28;20144;-68
2023/03/22 00:25:23;;;;;;;0.80;0.52;;;;;;;3.70;71.56;100703.16;5057958;28;20508;-68
2023/03/22 00:27:50;;;;;;;1.55;0.60;;;;;;;3.71;71.34;100710.03;5052121;28;20056;-68
2023/03/22 00:30:17;;;;;;;1.00;0.70;;;;;;;3.70;71.66;100699.66;5056054;28;20905;-68
2023/03/22 00:32:44;;;;;;;0.70;0.60;;;;;;;3.73;71.25;100703.16;5054247;28;20048;-68
2023/03/22 00:35:13;;;;;;;1.33;0.52;;;;;;;3.74;71.70;100693.69;5058812;28;20063;-68
2023/03/22 00:37:39;;;;;;;3.08;0.50;;;;;;;3.73;71.85;100687.66;5059388;28;20060;-68
2023/03/22 00:40:10;;;;;;;3.03;0.50;;;;;;;3.73;71.55;100685.09;5061372;28;21275;-68
2023/03/22 00:42:37;;;;;;;1.80;0.60;;;;;;;3.74;71.25;100684.22;5061209;28;20059;-68
2023/03/22 00:45:05;;;;;;;2.50;0.60;;;;;;;3.74;71.34;100680.78;5057211;28;21164;-68
2023/03/22 00:47:32;;;;;;;1.67;0.60;;;;;;;3.73;71.68;100674.75;5057263;28;20059;-68
2023/03/22 00:49:59;;;;;;;2.40;0.60;;;;;;;3.73;71.40;100672.16;5063086;28;20154;-68
2023/03/22 00:52:28;;;;;;;0.90;0.60;;;;;;;3.74;71.82;100663.56;5054865;28;20056;-68
2023/03/22 00:54:56;;;;;;;2.53;0.60;;;;;;;3.71;71.97;100648.03;5059006;28;20051;-68
2023/03/22 00:57:23;;;;;;;0.95;0.50;;;;;;;3.75;71.40;100643.75;5059528;28;20051;-68
2023/03/22 00:59:51;;;;;;;1.17;0.60;;;;;;;3.75;71.63;100642.03;5059594;28;20055;-69
2023/03/22 01:02:18;;;;;;;0.93;0.40;;;;;;;3.76;71.59;100630.84;5063322;28;20090;-68
2023/03/22 01:04:46;;;;;;;3.17;0.63;;;;;;;3.77;71.48;100642.91;5064040;28;20066;-68
2023/03/22 01:07:16;;;;;;;2.45;0.50;;;;;;;3.74;71.87;100627.38;5060430;28;20122;-68
2023/03/22 01:09:45;;;;;;;3.00;0.40;;;;;;;3.76;72.09;100623.09;5059030;28;20049;-68
2023/03/22 01:12:12;;;;;;;2.33;0.43;;;;;;;3.73;72.06;100615.31;5058432;28;20048;-68
2023/03/22 01:14:40;;;;;;;1.88;0.35;;;;;;;3.76;71.75;100615.34;5060317;28;20049;-68
2023/03/22 01:17:07;;;;;;;2.58;0.60;;;;;;;3.75;71.93;100613.59;5059990;28;20048;-68
2023/03/22 01:19:34;;;;;;;1.70;0.60;;;;;;;3.76;71.86;100609.31;5057628;28;20102;-68
2023/03/22 01:22:01;;;;;;;2.05;0.50;;;;;;;3.77;71.82;100606.72;5065371;28;20131;-68
2023/03/22 01:24:28;;;;;;;3.03;0.63;;;;;;;3.75;72.08;100599.81;5057054;28;20050;-68
2023/03/22 01:26:57;;;;;;;2.35;1.13;;;;;;;3.77;72.10;100593.81;5058625;28;20051;-68
2023/03/22 01:29:25;;;;;;;0.77;0.50;;;;;;;3.75;71.87;100584.31;5057587;28;20079;-68
2023/03/22 01:31:52;;;;;;;4.95;0.50;;;;;;;3.76;71.96;100584.34;5058638;28;20056;-68
2023/03/22 01:34:19;;;;;;;0.80;0.40;;;;;;;3.74;71.78;100573.13;5053411;28;20045;-68
2023/03/22 01:36:46;;;;;;;0.90;0.63;;;;;;;3.77;72.25;100572.28;5053632;28;20047;-68
2023/03/22 01:39:13;;;;;;;2.30;0.47;;;;;;;3.75;72.09;100567.09;5058680;28;20059;-68
2023/03/22 01:41:41;;;;;;;3.63;0.82;;;;;;;3.76;71.75;100561.09;5060893;28;20078;-68
2023/03/22 01:44:12;;;;;;;1.90;0.90;;;;;;;3.79;71.73;100563.69;5060325;28;20051;-68
2023/03/22 01:46:39;;;;;;;1.02;0.63;;;;;;;3.77;72.24;100552.47;5061333;28;20052;-68
2023/03/22 01:49:10;;;;;;;3.22;0.70;;;;;;;3.79;72.12;100550.78;5058832;28;20044;-68
2023/03/22 01:51:39;;;;;;;1.70;0.60;;;;;;;3.76;72.02;100543.00;5058680;28;20051;-68
2023/03/22 01:54:10;;;;;;;1.15;0.90;;;;;;;3.79;71.94;100537.84;5056860;28;20064;-68
2023/03/22 01:56:40;;;;;;;2.70;0.60;;;;;;;3.80;72.36;100528.38;5058833;28;20512;-68
2023/03/22 01:59:10;;;;;;;1.65;0.82;;;;;;;3.81;71.89;100531.00;5060817;28;20626;-68
2023/03/22 02:01:39;;;;;;;2.03;0.70;;;;;;;3.80;72.09;100518.91;5060331;28;20045;-68
2023/03/22 02:04:11;;;;;;;1.98;0.60;;;;;;;3.79;72.31;100514.59;5058590;28;20052;-68
2023/03/22 02:06:38;;;;;;;0.80;0.50;;;;;;;3.79;71.94;100514.59;5061893;28;20049;-68
2023/03/22 02:09:07;;;;;;;2.38;0.90;;;;;;;3.79;72.22;100508.56;5057838;28;20056;-68
2023/03/22 02:11:38;;;;;;;2.35;0.73;;;;;;;3.79;72.06;100496.53;5058971;28;20047;-68
2023/03/22 02:14:33;;;;;;;2.15;0.60;;;;;;;3.78;71.93;100491.34;5052841;28;20114;-68
2023/03/22 02:17:18;;;;;;;1.30;0.60;;;;;;;3.80;71.96;100484.47;5055215;28;21052;-68
2023/03/22 02:20:09;;;;;;;4.57;0.70;;;;;;;3.80;72.27;100481.88;5057013;28;20056;-68
2023/03/22 02:23:10;;;;;;;1.35;0.50;;;;;;;3.79;72.29;100475.84;5049753;28;20041;-68
2023/03/22 02:26:04;;;;;;;0.88;0.50;;;;;;;3.81;72.01;100478.41;5060425;28;20048;-68
2023/03/22 02:28:41;;;;;;;2.25;0.52;;;;;;;3.81;72.45;100468.09;5058536;28;20045;-68
2023/03/22 02:31:24;;;;;;;0.80;0.30;;;;;;;3.82;72.30;100462.09;5058512;28;20045;-68
2023/03/22 02:34:27;;;;;;;1.23;0.40;;;;;;;3.79;71.93;100460.34;5061591;28;20257;-68
2023/03/22 02:37:17;;;;;;;1.00;0.40;;;;;;;3.76;72.56;100444.84;5061400;28;20087;-68
2023/03/22 02:39:51;;;;;;;1.48;0.40;;;;;;;3.81;72.14;100445.72;5054378;28;20064;-68
2023/03/22 02:42:28;;;;;;;1.63;0.82;;;;;;;3.81;72.25;100445.72;5056414;28;20056;-68
2023/03/22 02:45:01;;;;;;;0.50;0.30;;;;;;;3.82;72.25;100441.41;5055583;28;20048;-68
2023/03/22 02:47:38;;;;;;;0.70;0.40;;;;;;;3.82;72.33;100437.09;5060234;28;20527;-68
2023/03/22 02:50:10;;;;;;;1.10;0.40;;;;;;;3.83;72.22;100432.78;5058680;28;20480;-68
2023/03/22 02:52:42;;;;;;;0.80;0.40;;;;;;;3.83;72.34;100420.72;5060633;28;20500;-68
2023/03/22 02:55:17;;;;;;;0.50;0.30;;;;;;;3.83;72.62;100419.88;5061030;28;20049;-68
2023/03/22 02:57:48;;;;;;;1.27;0.40;;;;;;;3.83;72.23;100420.72;5057702;28;20416;-68
2023/03/22 03:00:18;;;;;;;0.80;0.40;;;;;;;3.83;72.56;100412.13;5057656;28;20131;-69
2023/03/22 03:02:50;;;;;;;0.80;0.50;;;;;;;3.83;72.43;100410.41;5062338;28;20048;-68
2023/03/22 03:05:20;;;;;;;1.00;0.50;;;;;;;3.83;72.82;100406.97;5055841;28;20127;-69
2023/03/22 03:07:52;;;;;;;0.90;0.30;;;;;;;3.84;72.43;100393.16;5057923;28;20135;-68
2023/03/22 03:10:22;;;;;;;0.52;0.30;;;;;;;3.83;72.85;100399.22;5058029;28;20040;-73
2023/03/22 03:12:49;;;;;;;1.00;0.40;;;;;;;3.83;72.39;100392.31;5060610;28;20132;-72
2023/03/22 03:15:19;;;;;;;1.52;0.30;;;;;;;3.83;72.66;100384.56;5052088;28;20115;-73
2023/03/22 03:18:00;;;;;;;0.75;0.40;;;;;;;3.85;73.13;100386.31;5062577;28;20501;-72
2023/03/22 03:20:41;;;;;;;0.50;0.35;;;;;;;3.85;73.05;100375.97;5053437;28;20040;-73
2023/03/22 03:23:21;;;;;;;0.70;0.30;;;;;;;3.86;73.02;100373.38;5057393;28;20047;-73
2023/03/22 03:25:57;;;;;;;0.50;0.30;;;;;;;3.87;73.05;100374.22;5062476;28;20044;-73
2023/03/22 03:28:37;;;;;;;0.95;0.40;;;;;;;3.86;73.19;100363.03;5059658;28;20048;-73
2023/03/22 03:31:10;;;;;;;0.82;0.30;;;;;;;3.88;73.06;100360.47;5060672;28;20098;-73
2023/03/22 03:33:44;;;;;;;0.52;0.30;;;;;;;3.87;72.82;100351.88;5058063;28;20049;-73
2023/03/22 03:36:15;;;;;;;0.35;0.20;;;;;;;3.88;73.04;100356.16;5060111;28;20045;-73
2023/03/22 03:38:47;;;;;;;0.25;0.20;;;;;;;3.88;72.99;100351.00;5055798;28;20109;-72
2023/03/22 03:41:18;;;;;;;0.52;0.30;;;;;;;3.89;73.37;100344.09;5062180;28;20056;-73
2023/03/22 03:43:47;;;;;;;0.50;0.20;;;;;;;3.87;73.37;100338.94;5055386;28;20052;-71
2023/03/22 03:46:15;;;;;;;0.40;0.10;;;;;;;3.89;73.45;100328.59;5058089;28;20103;-73
2023/03/22 03:48:46;;;;;;;0.10;0.10;;;;;;;3.89;73.58;100326.00;5059298;28;20041;-72
2023/03/22 03:51:13;;;;;;;0.40;0.20;;;;;;;3.90;73.11;100325.16;5060525;28;20041;-74
2023/03/22 03:53:40;;;;;;;0.40;0.13;;;;;;;3.91;73.55;100320.00;5057182;28;20052;-73
2023/03/22 03:56:08;;;;;;;0.10;0.10;;;;;;;3.92;73.15;100315.69;5060679;28;20062;-73
2023/03/22 03:58:36;;;;;;;0.20;0.10;;;;;;;3.93;73.36;100318.28;5060409;28;20045;-73
2023/03/22 04:01:04;;;;;;;0.10;0.00;;;;;;;3.93;73.59;100313.13;5059528;28;20504;-73
2023/03/22 04:03:31;;;;;;;0.10;0.10;;;;;;;3.95;73.35;100307.94;5054488;28;20048;-73
2023/03/22 04:05:58;;;;;;;0.10;0.10;;;;;;;3.94;73.09;100306.22;5057587;28;20480;-73
2023/03/22 04:08:25;;;;;;;0.13;0.00;;;;;;;3.91;73.61;100288.13;5057554;28;20147;-73
2023/03/22 04:10:52;;;;;;;0.10;0.10;;;;;;;3.94;73.45;100288.97;5058620;28;20044;-73
2023/03/22 04:13:20;;;;;;;0.10;0.03;;;;;;;3.96;73.33;100299.34;5060985;28;20045;-73
2023/03/22 04:15:53;;;;;;;0.08;0.03;;;;;;;3.95;73.35;100282.94;5062869;28;20052;-73
2023/03/22 04:18:20;;;;;;;2.08;0.00;;;;;;;3.97;73.33;100283.81;5062713;28;20041;-73
2023/03/22 04:20:48;;;;;;;0.10;0.00;;;;;;;3.98;73.36;100275.19;5064690;28;20048;-73
2023/03/22 04:23:15;;;;;;;0.08;0.00;;;;;;;3.98;73.52;100269.16;5059283;28;20812;-73
2023/03/22 04:25:42;;;;;;;0.10;0.00;;;;;;;3.99;73.42;100263.16;5058228;28;20063;-73
2023/03/22 04:28:09;;;;;;;0.00;0.00;;;;;;;3.99;73.68;100258.84;5058448;28;20072;-73
2023/03/22 04:30:37;;;;;;;0.30;0.10;;;;;;;3.96;73.70;100251.09;5061136;28;20544;-73
2023/03/22 04:33:05;;;;;;;0.25;0.00;;;;;;;4.00;73.93;100251.94;5060342;28;20127;-73
2023/03/22 04:35:34;;;;;;;0.10;0.10;;;;;;;4.01;73.71;100253.66;5057095;28;20079;-73
2023/03/22 04:38:01;;;;;;;0.10;0.00;;;;;;;4.02;73.97;100250.22;5063739;28;20048;-73
2023/03/22 04:40:30;;;;;;;0.15;0.10;;;;;;;4.01;73.96;100240.72;5060295;28;20055;-73
2023/03/22 04:42:58;;;;;;;0.10;0.10;;;;;;;4.04;74.21;100238.16;5061257;28;20377;-73
2023/03/22 04:45:28;;;;;;;0.10;0.08;;;;;;;4.04;73.89;100239.03;5063776;28;20053;-73
2023/03/22 04:47:55;;;;;;;0.28;0.10;;;;;;;4.04;74.22;100232.97;5062986;28;20139;-73
2023/03/22 04:50:26;;;;;;;0.75;0.45;;;;;;;4.07;74.38;100238.19;5062728;28;20060;-73
2023/03/22 04:52:53;;;;;;;0.50;0.22;;;;;;;4.08;73.90;100224.38;5057765;28;20573;-76
2023/03/22 04:55:20;;;;;;;0.30;0.30;;;;;;;4.08;74.15;100223.53;5058120;28;20588;-73
2023/03/22 04:57:47;;;;;;;0.40;0.30;;;;;;;4.08;74.16;100219.22;5055985;28;20045;-73
2023/03/22 05:00:16;;;;;;;3.30;1.50;;;;;;;4.09;74.45;100208.00;5049168;28;20052;-73
2023/03/22 05:02:43;;;;;;;0.50;0.22;;;;;;;4.11;74.22;100214.03;5053087;28;20049;-73
2023/03/22 05:05:10;;;;;;;1.02;0.40;;;;;;;4.11;74.32;100208.88;5059321;28;20044;-73
2023/03/22 05:07:38;;;;;;;0.95;0.47;;;;;;;4.13;74.31;100201.97;5057084;28;20049;-73
2023/03/22 05:10:07;;;;;;;1.50;1.40;;;;;;;4.12;74.40;100195.06;5058689;28;20125;-73
2023/03/22 05:12:33;;;;;;;1.77;1.67;;;;;;;4.14;74.58;100193.34;5058010;28;20079;-72
2023/03/22 05:15:03;;;;;;;0.60;0.45;;;;;;;4.15;74.39;100200.22;5064767;28;20537;-71
2023/03/22 05:17:29;;;;;;;0.40;0.30;;;;;;;4.14;74.74;100190.75;5059841;28;20055;-71
2023/03/22 05:19:56;;;;;;;0.20;0.20;;;;;;;4.16;74.70;100196.81;5062660;28;20048;-72
2023/03/22 05:22:23;;;;;;;0.30;0.20;;;;;;;4.17;74.56;100193.34;5054955;28;20048;-72
2023/03/22 05:24:51;;;;;;;0.20;0.20;;;;;;;4.21;74.36;100196.78;5060343;28;20679;-73
2023/03/22 05:27:30;;;;;;;0.35;0.30;;;;;;;4.21;74.46;100195.06;5061882;28;20036;-72
2023/03/22 05:29:56;;;;;;;1.50;0.22;;;;;;;4.22;74.58;100183.88;5061715;28;20121;-72
2023/03/22 05:32:24;;;;;;;0.47;0.22;;;;;;;4.23;74.56;100180.41;5063974;28;20500;-72
2023/03/22 05:34:51;;;;;;;0.50;0.30;;;;;;;4.24;74.32;100176.97;5052589;28;20060;-72
2023/03/22 05:37:20;;;;;;;0.50;0.30;;;;;;;4.26;74.29;100175.22;5055018;28;20045;-72
2023/03/22 05:39:47;;;;;;;1.52;0.45;;;;;;;4.25;74.58;100165.75;5054806;28;20070;-72
2023/03/22 05:42:15;;;;;;;0.30;0.20;;;;;;;4.28;74.53;100159.72;5062649;28;20040;-72
2023/03/22 05:44:42;;;;;;;1.05;0.30;;;;;;;4.28;74.78;100154.56;5063517;28;20097;-72
2023/03/22 05:47:10;;;;;;;0.20;0.20;;;;;;;4.29;74.61;100151.94;5056533;28;20049;-72
2023/03/22 05:49:37;;;;;;;0.30;0.25;;;;;;;4.31;74.89;100154.53;5063019;28;20056;-72
2023/03/22 05:52:04;;;;;;;1.60;0.30;;;;;;;4.33;74.67;100146.78;5057370;28;20489;-72
2023/03/22 05:54:32;;;;;;;0.88;0.60;;;;;;;4.30;74.90;100142.50;5058033;28;20059;-72
2023/03/22 05:56:59;;;;;;;0.40;0.25;;;;;;;4.35;74.72;100138.13;5057090;28;20045;-70
2023/03/22 05:59:27;;;;;;;0.50;0.50;;;;;;;4.36;74.78;100128.69;5057501;28;20055;-70
2023/03/22 06:01:54;;;;;;;0.50;0.30;;;;;;;4.36;75.02;100126.94;5058025;28;20055;-73
2023/03/22 06:04:21;;;;;;;0.38;0.20;;;;;;;4.38;74.85;100119.16;5059154;28;20061;-72
2023/03/22 06:06:49;;;;;;;0.80;0.50;;;;;;;4.39;75.12;100115.75;5058624;28;20527;-72
2023/03/22 06:09:16;;;;;;;0.60;0.50;;;;;;;4.40;74.93;100112.28;5061440;28;20045;-72
2023/03/22 06:11:43;;;;;;;0.90;0.30;;;;;;;4.40;75.07;100122.63;5061777;28;20047;-72
2023/03/22 06:14:10;;;;;;;2.42;0.35;;;;;;;4.41;75.15;100122.63;5060651;28;20048;-73
2023/03/22 06:16:38;;;;;;;0.60;0.40;;;;;;;4.45;75.14;100126.06;5058810;28;20045;-72
2023/03/22 06:19:05;;;;;;;0.80;0.35;;;;;;;4.46;75.25;100120.00;5059746;28;20051;-72
2023/03/22 06:21:32;;;;;;;1.30;0.40;;;;;;;4.48;75.33;100120.88;5057579;28;20056;-72
2023/03/22 06:23:59;;;;;;;0.60;0.30;;;;;;;4.49;75.30;100115.66;5059107;28;20517;-72
2023/03/22 06:26:26;;;;;;;0.60;0.40;;;;;;;4.51;75.22;100118.25;5060600;28;20135;-72
2023/03/22 06:28:53;;;;;;;0.77;0.35;;;;;;;4.54;75.24;100115.66;5058707;28;20048;-72
2023/03/22 06:31:20;;;;;;;0.70;0.40;;;;;;;4.56;75.39;100118.25;5052239;28;20045;-72
2023/03/22 06:33:48;;;;;;;0.50;0.50;;;;;;;4.58;75.47;100124.25;5052349;28;20054;-73
2023/03/22 06:36:15;;;;;;;2.67;0.40;;;;;;;4.59;75.40;100119.09;5055663;28;20488;-72
2023/03/22 06:38:42;;;;;;;0.40;0.30;;;;;;;4.61;75.58;100114.78;5059388;28;21451;-71
2023/03/22 06:41:09;;;;;;;1.20;0.40;;;;;;;4.62;75.36;100113.91;5052951;28;20048;-72
2023/03/22 06:43:36;;;;;;;0.70;0.50;;;;;;;4.66;75.65;100114.75;5057429;28;20123;-74
2023/03/22 06:46:02;;;;;;;0.50;0.40;;;;;;;4.68;75.56;100120.78;5050217;28;20052;-73
2023/03/22 06:48:29;;;;;;;1.17;0.52;;;;;;;4.70;75.63;100106.13;5059530;28;20058;-73
2023/03/22 06:50:59;;;;;;;1.88;0.65;;;;;;;4.61;75.80;100088.03;5056839;28;20053;-73
2023/03/22 06:53:26;;;;;;;0.73;0.40;;;;;;;4.74;75.84;100108.66;5054602;28;20056;-73
2023/03/22 06:55:53;;;;;;;0.57;0.40;;;;;;;4.78;75.66;100100.88;5058292;28;20049;-73
2023/03/22 06:58:20;;;;;;;3.67;0.60;;;;;;;4.79;75.81;100095.69;5055233;28;20045;-73
2023/03/22 07:00:47;;;;;;;1.17;0.50;;;;;;;4.82;75.88;100087.06;5057854;28;20041;-74
2023/03/22 07:03:14;;;;;;;1.20;0.50;;;;;;;4.85;76.01;100099.97;5057053;28;20056;-73
2023/03/22 07:05:40;;;;;;;1.20;0.60;;;;;;;4.80;75.92;100081.88;5058252;28;20045;-73
2023/03/22 07:08:09;;;;;;;1.77;0.40;;;;;;;4.89;76.08;100092.16;5058031;28;20052;-73
2023/03/22 07:10:36;;;;;;;0.43;0.35;;;;;;;4.92;75.86;100088.72;5057927;28;20067;-72
2023/03/22 07:13:03;;;;;;;1.27;0.50;;;;;;;4.95;76.11;100091.28;5058835;28;20040;-73
2023/03/22 07:15:31;;;;;;;0.70;0.50;;;;;;;4.97;76.20;100080.03;5055276;28;20053;-72
2023/03/22 07:18:00;;;;;;;2.25;0.50;;;;;;;4.97;76.01;100072.28;5056097;28;20044;-73
2023/03/22 07:20:27;;;;;;;1.02;0.50;;;;;;;5.03;76.20;100076.56;5054102;28;20049;-73
2023/03/22 07:22:54;;;;;;;2.00;0.50;;;;;;;5.06;76.17;100066.19;5060262;28;20048;-73
2023/03/22 07:25:22;;;;;;;1.50;0.40;;;;;;;5.10;76.25;100059.28;5049678;28;20469;-73
2023/03/22 07:27:49;;;;;;;2.45;1.00;;;;;;;5.13;76.16;100070.44;5056335;28;20044;-72
2023/03/22 07:30:16;;;;;;;3.13;0.80;;;;;;;5.16;76.48;100061.81;5059401;28;20049;-73
2023/03/22 07:32:43;;;;;;;1.63;1.00;;;;;;;5.21;76.46;100066.94;5053312;28;20299;-73
2023/03/22 07:35:10;;;;;;;1.85;0.70;;;;;;;5.19;76.49;100065.22;5057634;28;20048;-73
2023/03/22 07:37:37;;;;;;;3.40;1.35;;;;;;;5.26;76.51;100072.94;5058590;28;20036;-72
2023/03/22 07:40:04;;;;;;;7.68;1.10;;;;;;;5.29;76.50;100072.91;5055381;28;20056;-74
2023/03/22 07:42:33;;;;;;;3.42;1.00;;;;;;;5.33;76.78;100078.06;5060177;28;20048;-73
2023/03/22 07:45:00;;;;;;;1.10;0.80;;;;;;;5.36;76.42;100072.00;5060193;28;20226;-73
2023/03/22 07:47:27;;;;;;;1.50;0.88;;;;;;;5.38;76.71;100067.69;5060734;28;20393;-73
2023/03/22 07:49:54;;;;;;;1.40;0.88;;;;;;;5.43;76.70;100063.28;5060367;28;20044;-73
2023/03/22 07:52:20;;;;;;;1.20;0.80;;;;;;;5.46;76.35;100063.25;5057711;28;20437;-73
2023/03/22 07:54:47;;;;;;;2.20;0.95;;;;;;;5.51;76.71;100061.50;5058386;28;20503;-73
2023/03/22 07:57:15;;;;;;;1.95;1.15;;;;;;;5.53;76.64;100052.00;5055718;28;20049;-73
2023/03/22 07:59:43;;;;;;;2.05;1.20;;;;;;;5.58;76.89;100046.78;5063548;28;20067;-74
2023/03/22 08:02:11;;;;;;;2.67;1.10;;;;;;;5.60;76.77;100048.44;5060129;28;20049;-73
2023/03/22 08:04:37;;;;;;;2.28;1.23;;;;;;;5.64;76.86;100051.88;5064017;28;20052;-73
2023/03/22 08:07:04;;;;;;;1.90;0.93;;;;;;;5.68;76.90;100044.94;5058184;28;20575;-74
2023/03/22 08:09:32;;;;;;;1.83;0.98;;;;;;;5.71;77.09;100035.38;5063648;28;20056;-73
2023/03/22 08:11:58;;;;;;;1.98;1.40;;;;;;;5.75;77.03;100042.28;5059749;28;20045;-73
2023/03/22 08:14:25;;;;;;;3.47;1.20;;;;;;;5.80;77.21;100042.22;5056695;28;20044;-73
2023/03/22 08:16:54;;;;;;;3.22;1.85;;;;;;;5.84;77.25;100033.53;5060522;28;20056;-73
2023/03/22 08:19:20;;;;;;;2.97;1.20;;;;;;;5.88;77.27;100032.63;5062054;28;20689;-73
2023/03/22 08:21:47;;;;;;;4.05;1.95;;;;;;;5.92;77.18;100029.13;5057578;28;20570;-74
2023/03/22 08:24:14;;;;;;;2.22;1.48;;;;;;;5.96;77.27;100036.03;5060233;28;20127;-73
2023/03/22 08:26:41;;;;;;;2.53;1.73;;;;;;;5.92;76.73;100017.88;5060766;28;20056;-73
2023/03/22 08:29:08;;;;;;;3.38;1.60;;;;;;;6.04;77.02;100026.41;5054034;28;20122;-73
2023/03/22 08:31:35;;;;;;;2.28;1.42;;;;;;;6.08;77.28;100028.09;5056223;28;20056;-74
2023/03/22 08:34:03;;;;;;;3.45;1.60;;;;;;;6.12;77.19;100031.53;5059716;28;20579;-73
2023/03/22 08:36:30;;;;;;;4.85;2.25;;;;;;;6.17;77.09;100026.25;5061231;28;20131;-73
2023/03/22 08:38:57;;;;;;;4.18;1.95;;;;;;;6.19;77.05;100020.19;5059615;28;20052;-73
2023/03/22 08:41:24;;;;;;;5.95;2.08;;;;;;;6.23;77.31;100027.06;5059931;28;20394;-74
2023/03/22 08:43:52;;;;;;;3.33;2.03;;;;;;;6.27;77.08;100017.50;5061917;28;20127;-74
2023/03/22 08:46:19;;;;;;;10.00;3.40;;;;;;;6.31;77.45;100008.78;5061075;28;20045;-73
2023/03/22 08:48:49;;;;;;;5.78;2.40;;;;;;;6.35;76.97;100017.38;5053908;28;20049;-72
2023/03/22 08:51:18;;;;;;;3.75;2.25;;;;;;;6.37;77.24;100008.69;5061238;28;20835;-73
2023/03/22 08:53:45;;;;;;;4.65;2.53;;;;;;;6.41;76.84;100005.19;5058713;28;20040;-73
2023/03/22 08:56:13;;;;;;;3.55;2.30;;;;;;;6.44;77.08;99999.97;5063645;28;20045;-73
2023/03/22 08:58:41;;;;;;;5.25;2.88;;;;;;;6.47;77.01;99999.91;5058115;28;20865;-74
2023/03/22 09:01:11;;;;;;;7.13;3.13;;;;;;;6.49;76.75;99995.59;5060011;28;20086;-73
2023/03/22 09:03:38;;;;;;;6.30;2.13;;;;;;;6.53;76.79;99993.78;5060819;28;20389;-73
2023/03/22 09:06:05;;;;;;;6.60;3.05;;;;;;;6.54;77.01;99990.31;5055073;28;20053;-73
2023/03/22 09:08:34;;;;;;;4.95;2.70;;;;;;;6.59;77.18;100000.63;5062315;28;20071;-74
2023/03/22 09:11:01;;;;;;;8.15;3.00;;;;;;;6.61;77.19;99996.28;5057284;28;20045;-73
2023/03/22 09:13:29;;;;;;;3.25;2.47;;;;;;;6.65;77.47;99997.94;5060923;28;20052;-74
2023/03/22 09:15:56;;;;;;;9.98;3.58;;;;;;;6.66;77.20;100005.72;5061581;28;20469;-73
2023/03/22 09:18:24;;;;;;;8.52;3.28;;;;;;;6.72;77.41;100004.78;5060455;28;20048;-73
2023/03/22 09:20:51;;;;;;;7.13;3.85;;;;;;;6.67;77.54;99991.84;5062006;28;20083;-73
2023/03/22 09:23:19;;;;;;;4.53;3.10;;;;;;;6.78;77.33;99994.28;5063949;28;20095;-73
2023/03/22 09:25:47;;;;;;;5.90;2.97;;;;;;;6.80;77.18;99982.13;5062011;28;20056;-73
2023/03/22 09:28:15;;;;;;;4.65;3.42;;;;;;;6.82;77.46;99980.38;5059877;28;20049;-73
2023/03/22 09:30:43;;;;;;;4.03;2.35;;;;;;;6.89;77.19;99987.19;5056641;28;20048;-73
2023/03/22 09:33:10;;;;;;;3.65;2.33;;;;;;;6.93;77.33;99983.66;5058678;28;20148;-71
2023/03/22 09:35:41;;;;;;;6.00;2.90;;;;;;;6.95;77.54;99983.63;5058606;28;20413;-73
2023/03/22 09:38:08;;;;;;;3.72;2.80;;;;;;;7.01;77.33;99975.75;5059661;28;20106;-73
2023/03/22 09:40:37;;;;;;;5.05;3.10;;;;;;;7.05;77.48;99971.34;5059997;28;20408;-73
2023/03/22 09:43:09;;;;;;;5.85;2.42;;;;;;;7.10;77.03;99970.38;5063078;28;20055;-73
2023/03/22 09:45:41;;;;;;;3.40;2.50;;;;;;;7.15;77.59;99975.50;5048603;28;20454;-73
2023/03/22 09:48:14;;;;;;;3.28;2.38;;;;;;;7.19;77.18;99970.22;5052504;28;20489;-74
2023/03/22 09:50:46;;;;;;;3.00;2.33;;;;;;;7.24;77.48;99961.50;5052198;28;20048;-73
2023/03/22 09:53:15;;;;;;;2.75;2.42;;;;;;;7.27;77.11;99956.25;5059174;28;20045;-73
2023/03/22 09:55:47;;;;;;;2.85;2.10;;;;;;;7.32;77.33;99950.09;5059685;28;20049;-74
2023/03/22 09:58:24;;;;;;;2.97;2.13;;;;;;;7.36;77.47;99946.53;5066281;28;20051;-74
2023/03/22 10:00:57;;;;;;;1.95;1.23;;;;;;;7.43;77.29;99947.31;5059977;28;20729;-73
2023/03/22 10:03:44;;;;;;;4.25;2.03;;;;;;;7.48;77.50;99936.78;5060300;28;20052;-74
2023/03/22 10:06:16;;;;;;;2.70;1.52;;;;;;;7.55;77.64;99934.06;5058165;28;20044;-73
2023/03/22 10:08:54;;;;;;;2.20;1.42;;;;;;;7.62;77.86;99927.00;5058435;28;20047;-73
2023/03/22 10:11:30;;;;;;;2.45;1.20;;;;;;;7.69;77.50;99930.34;5059860;28;20041;-73
2023/03/22 10:14:07;;;;;;;1.92;1.45;;;;;;;7.76;77.44;99927.56;5062620;28;20049;-73
2023/03/22 10:16:35;;;;;;;1.95;0.90;;;;;;;7.82;77.57;99924.84;5059095;28;20063;-74
2023/03/22 10:19:07;;;;;;;1.52;1.02;;;;;;;7.88;77.92;99916.94;5061157;28;20040;-73
2023/03/22 10:21:35;;;;;;;1.23;0.77;;;;;;;7.95;77.28;99914.19;5051723;28;20056;-73
2023/03/22 10:24:12;;;;;;;1.88;0.90;;;;;;;8.02;77.50;99913.16;5056780;28;20424;-74
2023/03/22 10:26:41;;;;;;;0.93;0.60;;;;;;;8.07;77.72;99908.72;5054311;28;20044;-74
2023/03/22 10:29:15;;;;;;;0.52;0.47;;;;;;;8.17;77.63;99914.56;5052322;28;20619;-72
2023/03/22 10:31:44;;;;;;;1.08;0.40;;;;;;;8.23;77.15;99920.50;5058720;28;20041;-73
2023/03/22 10:34:19;;;;;;;0.50;0.47;;;;;;;8.25;77.35;99902.22;5060499;28;20041;-75
2023/03/22 10:36:48;;;;;;;0.40;0.30;;;;;;;8.36;77.23;99912.41;5057969;28;20113;-74
2023/03/22 10:39:27;;;;;;;0.43;0.30;;;;;;;8.43;76.82;99914.03;5060942;28;20041;-74
2023/03/22 10:41:56;;;;;;;0.50;0.40;;;;;;;8.51;76.46;99922.50;5056092;28;20064;-73
2023/03/22 10:44:26;;;;;;;0.52;0.30;;;;;;;8.55;76.93;99911.97;5061093;28;20044;-75
2023/03/22 10:46:56;;;;;;;0.43;0.30;;;;;;;8.60;76.29;99924.88;5059720;28;20452;-74
2023/03/22 10:49:28;;;;;;;0.60;0.40;;;;;;;8.64;76.12;99921.31;5060618;28;20558;-74
2023/03/22 10:52:00;;;;;;;2.92;0.40;;;;;;;8.68;76.20;99925.56;5061547;28;20049;-74
2023/03/22 10:54:27;;;;;;;0.60;0.38;;;;;;;8.67;76.16;99916.03;5054655;28;20057;-74
2023/03/22 10:56:54;;;;;;;0.52;0.40;;;;;;;8.77;75.76;99922.72;5057021;28;20139;-73
2023/03/22 10:59:47;;;;;;;0.32;0.32;;;;;;;8.82;75.63;99919.13;5063870;28;20110;-74
2023/03/22 11:02:24;;;;;;;0.65;0.35;;;;;;;8.85;75.13;99906.03;5057703;28;20049;-74
2023/03/22 11:04:52;;;;;;;0.93;0.52;;;;;;;8.88;75.29;99911.16;5058783;28;20048;-74
2023/03/22 11:07:32;;;;;;;1.08;0.22;;;;;;;8.93;75.19;99911.91;5060361;28;20127;-74
2023/03/22 11:10:21;;;;;;;0.40;0.32;;;;;;;8.96;75.02;99901.41;5051866;28;20052;-73
2023/03/22 11:12:51;;;;;;;0.30;0.30;;;;;;;8.98;75.07;99892.66;5053200;28;20169;-74
2023/03/22 11:15:27;;;;;;;1.50;0.40;;;;;;;9.04;74.86;99893.41;5053524;28;20528;-74
2023/03/22 11:17:59;;;;;;;1.25;0.40;;;;;;;9.07;74.70;99904.59;5055682;28;20427;-74
2023/03/22 11:20:26;;;;;;;0.40;0.30;;;;;;;9.11;74.62;99890.59;5062984;28;20102;-74
2023/03/22 11:22:53;;;;;;;0.60;0.40;;;;;;;9.15;74.44;99899.19;5057942;28;20044;-74
2023/03/22 11:25:25;;;;;;;0.50;0.43;;;;;;;9.17;74.78;99893.03;5057684;28;20050;-74
2023/03/22 11:27:55;;;;;;;1.02;0.30;;;;;;;9.21;74.38;99886.00;5059376;28;20435;-74
2023/03/22 11:30:26;;;;;;;0.73;0.22;;;;;;;9.26;74.78;99894.53;5061587;28;20052;-74
2023/03/22 11:33:15;;;;;;;1.55;0.30;;;;;;;9.30;74.66;99890.09;5057948;28;20052;-75
2023/03/22 11:35:45;;;;;;;0.70;0.30;;;;;;;9.33;74.50;99890.00;5061781;28;20151;-74
2023/03/22 11:38:24;;;;;;;0.30;0.30;;;;;;;9.36;74.18;99879.50;5058574;28;20048;-74
2023/03/22 11:40:56;;;;;;;1.85;0.30;;;;;;;9.40;74.05;99868.94;5049661;28;20041;-74
2023/03/22 11:43:27;;;;;;;1.00;0.40;;;;;;;9.45;74.18;99872.28;5048986;28;20055;-74
2023/03/22 11:45:57;;;;;;;0.55;0.30;;;;;;;9.49;74.23;99873.06;5058526;28;20603;-74